createdAt,value
2018-08-25T00:00:41.724Z,4.17
2018-08-25T00:03:10.805Z,4.30
2018-08-25T00:05:39.681Z,4.87
2018-08-25T00:08:08.676Z,4.07
2018-08-25T00:10:37.528Z,4.17
2018-08-25T00:13:06.452Z,4.10
2018-08-25T00:15:35.536Z,4.63
2018-08-25T00:18:04.396Z,4.23
2018-08-25T00:20:33.213Z,4.17
2018-08-25T00:23:02.095Z,4.20
2018-08-25T00:25:31.043Z,4.17
2018-08-25T00:28:00.445Z,4.30
2018-08-25T00:30:34.589Z,4.27
2018-08-25T00:33:03.609Z,4.80
2018-08-25T00:35:32.476Z,4.40
2018-08-25T00:38:01.459Z,4.93
2018-08-25T00:40:30.494Z,4.60
2018-08-25T00:42:59.388Z,4.50
2018-08-25T00:45:28.270Z,4.57
2018-08-25T00:47:57.122Z,4.60
2018-08-25T00:50:26.187Z,5.00
2018-08-25T00:52:55.052Z,5.47
2018-08-25T00:55:24.077Z,6.17
2018-08-25T00:57:52.989Z,6.20
2018-08-25T01:00:22.080Z,6.43
2018-08-25T01:02:51.156Z,7.57
2018-08-25T01:05:20.160Z,6.87
2018-08-25T01:07:49.048Z,7.07
2018-08-25T01:10:17.896Z,7.57
2018-08-25T01:12:47.314Z,7.23
2018-08-25T01:15:16.525Z,6.97
2018-08-25T01:17:45.429Z,7.33
2018-08-25T01:20:14.337Z,7.50
2018-08-25T01:22:43.314Z,7.83
2018-08-25T01:25:12.155Z,6.53
2018-08-25T01:27:41.214Z,6.90
2018-08-25T01:30:10.097Z,6.80
2018-08-25T01:32:39.183Z,6.60
2018-08-25T01:35:08.074Z,6.50
2018-08-25T01:37:37.108Z,6.80
2018-08-25T01:40:06.228Z,7.73
2018-08-25T01:42:35.201Z,6.80
2018-08-25T01:45:04.172Z,7.23
2018-08-25T01:47:33.112Z,7.70
2018-08-25T01:50:01.956Z,7.33
2018-08-25T01:52:31.072Z,7.10
2018-08-25T01:55:00.180Z,6.47
2018-08-25T01:57:29.023Z,7.83
2018-08-25T01:59:58.038Z,8.33
2018-08-25T02:02:26.992Z,8.17
2018-08-25T02:04:55.831Z,8.20
2018-08-25T02:07:24.684Z,9.13
2018-08-25T02:09:53.757Z,8.83
2018-08-25T02:12:22.697Z,8.80
2018-08-25T02:14:51.564Z,8.50
2018-08-25T02:17:20.703Z,8.67
2018-08-25T02:19:49.732Z,7.90
2018-08-25T02:22:18.589Z,8.20
2018-08-25T02:24:47.629Z,8.03
2018-08-25T02:27:16.656Z,8.07
2018-08-25T02:29:45.645Z,8.37
2018-08-25T02:32:14.496Z,9.37
2018-08-25T02:34:43.375Z,7.90
2018-08-25T02:37:12.597Z,8.93
2018-08-25T02:39:41.577Z,9.73
2018-08-25T02:42:10.544Z,8.50
2018-08-25T02:44:39.448Z,9.07
2018-08-25T02:47:08.256Z,9.27
2018-08-25T02:49:37.147Z,8.90
2018-08-25T02:52:06.178Z,7.57
2018-08-25T02:54:35.064Z,8.07
2018-08-25T02:57:04.024Z,8.20
2018-08-25T02:59:32.899Z,7.40
2018-08-25T03:02:01.904Z,7.90
2018-08-25T03:04:30.926Z,8.77
2018-08-25T03:06:59.843Z,8.40
2018-08-25T03:09:28.743Z,8.03
2018-08-25T03:11:57.719Z,8.03
2018-08-25T03:14:26.554Z,8.27
2018-08-25T03:16:55.412Z,7.37
2018-08-25T03:19:24.393Z,7.60
2018-08-25T03:21:53.318Z,7.67
2018-08-25T03:24:22.453Z,7.13
2018-08-25T03:26:51.588Z,7.70
2018-08-25T03:29:20.457Z,8.63
2018-08-25T03:31:49.463Z,7.60
2018-08-25T03:34:18.363Z,7.70
2018-08-25T03:36:47.295Z,7.13
2018-08-25T03:39:16.256Z,7.30
2018-08-25T03:41:45.217Z,7.33
2018-08-25T03:44:14.229Z,7.03
2018-08-25T03:46:43.186Z,7.13
2018-08-25T03:49:12.093Z,6.80
2018-08-25T03:51:40.983Z,7.07
2018-08-25T03:54:10.323Z,7.40
2018-08-25T03:56:39.132Z,7.33
2018-08-25T03:59:08.017Z,8.13
2018-08-25T04:01:37.101Z,7.13
2018-08-25T04:04:05.976Z,7.23
2018-08-25T04:06:34.873Z,7.17
2018-08-25T04:09:04.031Z,6.10
2018-08-25T04:11:33.069Z,6.63
2018-08-25T04:14:02.116Z,17.27
2018-08-25T04:16:31.032Z,7.97
2018-08-25T04:19:00.061Z,7.17
2018-08-25T04:21:29.072Z,7.23
2018-08-25T04:23:58.132Z,6.67
2018-08-25T04:26:27.104Z,7.27
2018-08-25T04:28:56.068Z,8.33
2018-08-25T04:31:25.007Z,7.10
2018-08-25T04:33:53.878Z,7.07
2018-08-25T04:36:22.736Z,7.13
2018-08-25T04:38:52.816Z,7.80
2018-08-25T04:41:21.786Z,7.37
2018-08-25T04:43:50.620Z,7.13
2018-08-25T04:46:19.442Z,7.50
2018-08-25T04:48:48.383Z,7.03
2018-08-25T04:51:17.508Z,7.30
2018-08-25T04:53:47.187Z,6.80
2018-08-25T04:56:15.995Z,7.70
2018-08-25T04:58:44.905Z,6.50
2018-08-25T05:01:13.746Z,7.63
2018-08-25T05:03:42.749Z,7.40
2018-08-25T05:06:11.642Z,6.50
2018-08-25T05:08:40.803Z,7.60
2018-08-25T05:11:09.705Z,7.60
2018-08-25T05:13:38.582Z,7.03
2018-08-25T05:16:07.474Z,8.03
2018-08-25T05:18:37.120Z,8.50
2018-08-25T05:21:06.109Z,7.20
2018-08-25T05:23:35.037Z,6.03
2018-08-25T05:26:03.929Z,6.60
2018-08-25T05:28:33.024Z,5.97
2018-08-25T05:31:02.016Z,5.93
2018-08-25T05:33:31.157Z,6.60
2018-08-25T05:36:00.045Z,5.80
2018-08-25T05:38:28.982Z,6.40
2018-08-25T05:40:58.011Z,6.10
2018-08-25T05:43:26.889Z,5.90
2018-08-25T05:45:55.803Z,6.10
2018-08-25T05:48:24.795Z,7.23
2018-08-25T05:50:53.688Z,7.87
2018-08-25T05:53:22.733Z,7.20
2018-08-25T05:55:51.555Z,6.23
2018-08-25T05:58:20.408Z,6.50
2018-08-25T06:00:49.455Z,6.07
2018-08-25T06:03:18.316Z,5.80
2018-08-25T06:05:47.249Z,6.30
2018-08-25T06:08:16.107Z,6.03
2018-08-25T06:10:45.127Z,5.60
2018-08-25T06:13:14.013Z,5.80
2018-08-25T06:15:42.944Z,10.27
2018-08-25T06:18:11.903Z,5.70
2018-08-25T06:20:40.835Z,5.87
2018-08-25T06:23:09.748Z,6.40
2018-08-25T06:25:38.632Z,5.70
2018-08-25T06:28:07.742Z,5.60
2018-08-25T06:30:36.611Z,5.20
2018-08-25T06:33:05.852Z,5.37
2018-08-25T06:35:34.883Z,6.23
2018-08-25T06:38:03.885Z,5.43
2018-08-25T06:40:32.830Z,5.13
2018-08-25T06:43:01.682Z,5.50
2018-08-25T06:45:30.719Z,5.10
2018-08-25T06:47:59.647Z,5.90
2018-08-25T06:50:28.564Z,4.77
2018-08-25T06:52:57.484Z,5.60
2018-08-25T06:55:26.569Z,5.33
2018-08-25T06:57:55.475Z,5.23
2018-08-25T07:00:24.553Z,5.30
2018-08-25T07:02:53.479Z,5.30
2018-08-25T07:05:22.393Z,5.27
2018-08-25T07:07:51.312Z,5.00
2018-08-25T07:10:20.249Z,5.70
2018-08-25T07:12:49.378Z,6.23
2018-08-25T07:15:18.192Z,5.60
2018-08-25T07:17:47.209Z,6.50
2018-08-25T07:20:16.053Z,5.63
2018-08-25T07:22:45.076Z,5.80
2018-08-25T07:25:14.248Z,5.77
2018-08-25T07:27:43.115Z,5.60
2018-08-25T07:30:12.067Z,5.97
2018-08-25T07:32:40.995Z,4.20
2018-08-25T07:35:09.912Z,5.93
2018-08-25T07:37:38.918Z,4.00
2018-08-25T07:40:07.889Z,4.33
2018-08-25T07:42:36.897Z,4.37
2018-08-25T07:45:05.885Z,4.50
2018-08-25T07:47:34.877Z,10.30
2018-08-25T07:50:03.796Z,19.13
2018-08-25T07:52:32.785Z,4.90
2018-08-25T07:55:01.884Z,5.73
2018-08-25T07:57:31.109Z,3.60
2018-08-25T08:00:00.165Z,3.63
2018-08-25T08:02:29.208Z,3.83
2018-08-25T08:04:58.047Z,3.20
2018-08-25T08:07:27.001Z,3.40
2018-08-25T08:09:55.900Z,3.20
2018-08-25T08:12:24.882Z,3.20
2018-08-25T08:14:53.836Z,3.60
2018-08-25T08:17:22.753Z,2.87
2018-08-25T08:19:51.717Z,3.30
2018-08-25T08:22:20.766Z,3.40
2018-08-25T08:24:49.808Z,3.53
2018-08-25T08:27:18.916Z,3.90
2018-08-25T08:29:48.268Z,3.37
2018-08-25T08:32:17.216Z,3.37
2018-08-25T08:34:46.216Z,4.17
2018-08-25T08:37:15.017Z,3.60
2018-08-25T08:39:43.851Z,3.30
2018-08-25T08:42:12.771Z,3.70
2018-08-25T08:44:41.659Z,3.63
2018-08-25T08:47:10.972Z,3.80
2018-08-25T08:49:46.749Z,3.60
2018-08-25T08:52:11.724Z,3.90
2018-08-25T08:54:41.032Z,4.70
2018-08-25T08:57:10.325Z,3.53
2018-08-25T08:59:39.197Z,4.00
2018-08-25T09:02:08.158Z,3.70
2018-08-25T09:04:37.128Z,4.07
2018-08-25T09:07:06.180Z,4.00
2018-08-25T09:09:35.161Z,3.47
2018-08-25T09:12:04.069Z,3.70
2018-08-25T09:14:32.919Z,4.50
2018-08-25T09:17:01.729Z,3.50
2018-08-25T09:19:30.670Z,4.40
2018-08-25T09:21:59.634Z,4.00
2018-08-25T09:24:28.665Z,3.90
2018-08-25T09:26:57.539Z,3.80
2018-08-25T09:29:26.428Z,4.20
2018-08-25T09:31:55.456Z,3.67
2018-08-25T09:34:24.480Z,4.30
2018-08-25T09:36:53.371Z,3.83
2018-08-25T09:39:22.440Z,4.00
2018-08-25T09:41:51.606Z,4.53
2018-08-25T09:44:20.471Z,3.90
2018-08-25T09:46:49.440Z,4.17
2018-08-25T09:49:18.380Z,4.27
2018-08-25T09:51:47.356Z,3.60
2018-08-25T09:54:16.338Z,4.13
2018-08-25T09:56:45.300Z,3.83
2018-08-25T09:59:14.264Z,3.90
2018-08-25T10:01:48.032Z,4.57
2018-08-25T10:04:17.092Z,3.90
2018-08-25T10:06:45.895Z,4.00
2018-08-25T10:09:14.746Z,3.70
2018-08-25T10:11:43.636Z,4.00
2018-08-25T10:14:12.493Z,4.47
2018-08-25T10:16:41.415Z,3.90
2018-08-25T10:19:10.284Z,4.00
2018-08-25T10:21:39.307Z,3.90
2018-08-25T10:24:08.592Z,4.27
2018-08-25T10:26:37.608Z,4.20
2018-08-25T10:29:06.693Z,6.43
2018-08-25T10:31:35.651Z,4.00
2018-08-25T10:34:04.506Z,6.97
2018-08-25T10:36:33.407Z,4.30
2018-08-25T10:39:02.292Z,4.13
2018-08-25T10:41:31.343Z,4.20
2018-08-25T10:44:00.328Z,4.10
2018-08-25T10:46:29.172Z,4.17
2018-08-25T10:48:58.112Z,5.40
2018-08-25T10:51:26.999Z,4.40
2018-08-25T10:53:55.920Z,3.87
2018-08-25T10:56:25.156Z,4.63
2018-08-25T10:58:54.379Z,5.83
2018-08-25T11:01:23.433Z,4.43
2018-08-25T11:03:52.387Z,3.90
2018-08-25T11:06:21.317Z,3.77
2018-08-25T11:08:50.269Z,4.23
2018-08-25T11:11:19.129Z,3.80
2018-08-25T11:13:48.140Z,3.93
2018-08-25T11:16:17.083Z,4.00
2018-08-25T11:18:45.939Z,4.00
2018-08-25T11:21:14.781Z,4.23
2018-08-25T11:23:43.801Z,5.20
2018-08-25T11:26:12.799Z,6.13
2018-08-25T11:28:41.992Z,4.30
2018-08-25T11:31:10.988Z,4.20
2018-08-25T11:33:39.881Z,3.70
2018-08-25T11:36:09.058Z,3.93
2018-08-25T11:38:38.140Z,3.87
2018-08-25T11:41:07.052Z,4.10
2018-08-25T11:43:36.048Z,4.40
2018-08-25T11:46:04.968Z,4.00
2018-08-25T11:48:33.827Z,3.90
2018-08-25T11:51:02.728Z,3.87
2018-08-25T11:53:31.706Z,3.70
2018-08-25T11:56:00.721Z,4.07
2018-08-25T11:58:29.777Z,4.03
2018-08-25T12:00:59.172Z,3.60
2018-08-25T12:03:28.347Z,4.43
2018-08-25T12:05:57.531Z,4.60
2018-08-25T12:08:26.652Z,4.30
2018-08-25T12:10:55.604Z,4.30
2018-08-25T12:13:24.500Z,3.83
2018-08-25T12:15:53.420Z,3.70
2018-08-25T12:18:22.440Z,3.90
2018-08-25T12:20:51.373Z,4.03
2018-08-25T12:23:20.220Z,3.40
2018-08-25T12:25:49.223Z,3.77
2018-08-25T12:28:18.143Z,3.80
2018-08-25T12:30:47.169Z,4.20
2018-08-25T12:33:16.136Z,4.30
2018-08-25T12:35:44.988Z,3.50
2018-08-25T12:38:13.981Z,3.63
2018-08-25T12:40:42.991Z,3.73
2018-08-25T12:43:12.142Z,3.60
2018-08-25T12:45:41.029Z,3.50
2018-08-25T12:48:10.070Z,3.53
2018-08-25T12:50:39.032Z,4.07
2018-08-25T12:53:08.017Z,3.50
2018-08-25T12:55:36.880Z,4.00
2018-08-25T12:58:06.151Z,3.83
2018-08-25T13:00:35.129Z,3.57
2018-08-25T13:03:04.504Z,3.50
2018-08-25T13:05:33.729Z,3.73
2018-08-25T13:08:03.093Z,3.40
2018-08-25T13:10:32.125Z,3.93
2018-08-25T13:13:01.152Z,4.13
2018-08-25T13:15:30.069Z,3.60
2018-08-25T13:17:59.077Z,3.97
2018-08-25T13:20:28.149Z,3.63
2018-08-25T13:22:58.668Z,3.37
2018-08-25T13:25:27.920Z,3.67
2018-08-25T13:27:56.832Z,4.00
2018-08-25T13:30:25.676Z,3.60
2018-08-25T13:32:54.705Z,3.47
2018-08-25T13:35:23.661Z,3.70
2018-08-25T13:37:52.728Z,3.47
2018-08-25T13:40:21.580Z,3.40
2018-08-25T13:42:50.540Z,3.70
2018-08-25T13:45:19.556Z,3.30
2018-08-25T13:47:48.643Z,3.40
2018-08-25T13:50:17.556Z,3.50
2018-08-25T13:52:46.472Z,3.40
2018-08-25T13:55:15.428Z,3.60
2018-08-25T13:57:44.335Z,3.30
2018-08-25T14:00:13.503Z,3.30
2018-08-25T14:02:42.786Z,3.20
2018-08-25T14:05:12.367Z,3.13
2018-08-25T14:07:41.240Z,3.40
2018-08-25T14:10:10.244Z,3.60
2018-08-25T14:12:39.194Z,3.40
2018-08-25T14:15:08.184Z,3.97
2018-08-25T14:17:38.053Z,3.70
2018-08-25T14:20:07.096Z,3.17
2018-08-25T14:22:36.474Z,3.37
2018-08-25T14:25:05.719Z,3.67
2018-08-25T14:27:34.735Z,3.10
2018-08-25T14:30:03.644Z,3.60
2018-08-25T14:32:32.777Z,3.70
2018-08-25T14:35:01.584Z,3.60
2018-08-25T14:37:30.884Z,4.20
2018-08-25T14:39:59.972Z,3.50
2018-08-25T14:42:28.902Z,3.67
2018-08-25T14:44:57.937Z,3.40
2018-08-25T14:47:26.844Z,3.30
2018-08-25T14:49:55.800Z,3.60
2018-08-25T14:52:24.669Z,3.17
2018-08-25T14:54:53.471Z,3.17
2018-08-25T14:57:22.834Z,3.23
2018-08-25T14:59:52.203Z,3.53
2018-08-25T15:02:21.316Z,3.07
2018-08-25T15:04:50.302Z,3.20
2018-08-25T15:07:19.744Z,2.60
2018-08-25T15:09:48.796Z,3.30
2018-08-25T15:12:17.728Z,3.40
2018-08-25T15:14:46.672Z,2.93
2018-08-25T15:17:15.607Z,3.00
2018-08-25T15:19:44.456Z,2.77
2018-08-25T15:22:13.360Z,2.60
2018-08-25T15:24:42.215Z,2.77
2018-08-25T15:27:11.435Z,3.50
2018-08-25T15:29:40.413Z,3.60
2018-08-25T15:32:09.339Z,2.93
2018-08-25T15:34:38.420Z,3.10
2018-08-25T15:37:07.304Z,3.03
2018-08-25T15:39:36.254Z,3.27
2018-08-25T15:42:05.217Z,2.83
2018-08-25T15:44:34.293Z,3.10
2018-08-25T15:47:03.156Z,3.17
2018-08-25T15:49:32.152Z,3.07
2018-08-25T15:52:01.148Z,3.47
2018-08-25T15:56:57.804Z,3.53
2018-08-25T15:59:26.809Z,2.83
2018-08-25T16:01:55.788Z,2.60
2018-08-25T16:04:24.631Z,2.97
2018-08-25T16:06:53.484Z,3.00
2018-08-25T16:09:22.349Z,2.83
2018-08-25T16:11:51.384Z,3.00
2018-08-25T16:14:20.279Z,2.50
2018-08-25T16:16:49.232Z,2.77
2018-08-25T16:19:18.276Z,2.67
2018-08-25T16:21:47.200Z,3.00
2018-08-25T16:24:16.152Z,2.97
2018-08-25T16:26:45.055Z,3.07
2018-08-25T16:29:14.156Z,2.80
2018-08-25T16:31:43.142Z,2.57
2018-08-25T16:34:12.429Z,3.00
2018-08-25T16:36:41.920Z,2.63
2018-08-25T16:39:10.787Z,3.90
2018-08-25T16:41:39.762Z,3.37
2018-08-25T16:44:08.721Z,3.70
2018-08-25T16:46:37.696Z,3.20
2018-08-25T16:49:06.679Z,2.80
2018-08-25T16:51:35.601Z,2.67
2018-08-25T16:54:04.487Z,2.87
2018-08-25T16:56:33.301Z,3.63
2018-08-25T16:59:02.566Z,3.70
2018-08-25T17:01:31.967Z,3.03
2018-08-25T17:04:00.935Z,3.07
2018-08-25T17:06:29.840Z,3.13
2018-08-25T17:08:58.796Z,2.77
2018-08-25T17:11:27.704Z,2.87
2018-08-25T17:13:56.736Z,2.90
2018-08-25T17:16:25.756Z,3.63
2018-08-25T17:18:54.664Z,3.57
2018-08-25T17:21:23.476Z,4.27
2018-08-25T17:23:52.525Z,3.40
2018-08-25T17:26:21.475Z,2.57
2018-08-25T17:28:50.392Z,3.20
2018-08-25T17:31:19.287Z,3.30
2018-08-25T17:33:48.240Z,2.87
2018-08-25T17:36:17.087Z,3.63
2018-08-25T17:38:46.196Z,4.80
2018-08-25T17:41:15.174Z,3.80
2018-08-25T17:43:44.050Z,3.60
2018-08-25T17:46:13.715Z,3.43
2018-08-25T17:48:42.605Z,3.30
2018-08-25T17:51:11.554Z,3.33
2018-08-25T17:53:40.381Z,2.90
2018-08-25T17:56:09.384Z,3.00
2018-08-25T17:58:38.238Z,3.80
2018-08-25T18:01:07.072Z,3.30
2018-08-25T18:03:36.142Z,2.90
2018-08-25T18:06:05.052Z,3.73
2018-08-25T18:08:34.114Z,3.07
2018-08-25T18:11:02.949Z,3.03
2018-08-25T18:13:31.933Z,3.47
2018-08-25T18:16:00.780Z,3.37
2018-08-25T18:18:29.707Z,3.60
2018-08-25T18:20:58.698Z,3.33
2018-08-25T18:23:27.733Z,3.17
2018-08-25T18:25:56.735Z,3.60
2018-08-25T18:28:25.728Z,3.40
2018-08-25T18:30:54.669Z,3.00
2018-08-25T18:33:23.573Z,3.23
2018-08-25T18:35:52.724Z,3.00
2018-08-25T18:38:21.697Z,3.03
2018-08-25T18:40:50.588Z,3.00
2018-08-25T18:43:19.568Z,3.20
2018-08-25T18:45:48.657Z,2.90
2018-08-25T18:48:17.597Z,2.77
2018-08-25T18:50:46.564Z,3.57
2018-08-25T18:53:15.500Z,3.43
2018-08-25T18:55:44.712Z,4.43
2018-08-25T18:58:13.726Z,5.10
2018-08-25T19:00:42.629Z,3.03
2018-08-25T19:03:11.531Z,3.13
2018-08-25T19:05:40.373Z,4.23
2018-08-25T19:08:09.393Z,3.63
2018-08-25T19:10:38.364Z,4.00
2018-08-25T19:13:07.340Z,3.37
2018-08-25T19:15:36.197Z,3.30
2018-08-25T19:18:05.117Z,3.30
2018-08-25T19:20:33.975Z,4.07
2018-08-25T19:23:02.988Z,3.73
2018-08-25T19:25:32.001Z,4.13
2018-08-25T19:28:00.927Z,3.80
2018-08-25T19:30:29.988Z,10.87
2018-08-25T19:32:58.968Z,5.93
2018-08-25T19:35:27.870Z,4.00
2018-08-25T19:37:56.848Z,4.20
2018-08-25T19:40:25.875Z,3.50
2018-08-25T19:42:54.828Z,4.17
2018-08-25T19:45:23.668Z,4.13
2018-08-25T19:47:52.702Z,4.33
2018-08-25T19:50:21.707Z,4.20
2018-08-25T19:52:50.690Z,3.57
2018-08-25T19:55:19.561Z,3.40
2018-08-25T19:57:48.516Z,4.07
2018-08-25T20:00:17.515Z,5.57
2018-08-25T20:02:46.416Z,6.60
2018-08-25T20:05:15.254Z,4.10
2018-08-25T20:07:44.229Z,3.63
2018-08-25T20:10:13.204Z,3.90
2018-08-25T20:12:42.130Z,4.10
2018-08-25T20:15:11.037Z,4.13
2018-08-25T20:17:39.993Z,3.90
2018-08-25T20:20:09.669Z,4.10
2018-08-25T20:22:38.508Z,5.20
2018-08-25T20:25:07.915Z,10.83
2018-08-25T20:27:36.776Z,17.00
2018-08-25T20:30:06.655Z,13.53
2018-08-25T20:32:35.661Z,5.40
2018-08-25T20:35:04.615Z,9.10
2018-08-25T20:37:33.476Z,5.00
2018-08-25T20:40:02.505Z,4.60
2018-08-25T20:42:31.505Z,4.60
2018-08-25T20:45:00.580Z,3.97
2018-08-25T20:47:29.567Z,3.87
2018-08-25T20:49:58.460Z,3.60
2018-08-25T20:52:27.525Z,4.33
2018-08-25T20:54:56.545Z,4.83
2018-08-25T20:57:25.408Z,4.77
2018-08-25T20:59:54.472Z,4.17
2018-08-25T21:02:23.322Z,3.50
2018-08-25T21:04:52.317Z,3.67
2018-08-25T21:07:21.165Z,4.20
2018-08-25T21:09:50.004Z,4.67
2018-08-25T21:12:19.069Z,3.50
2018-08-25T21:14:47.965Z,4.47
2018-08-25T21:17:17.001Z,3.87
2018-08-25T21:19:45.844Z,5.33
2018-08-25T21:22:15.104Z,4.40
2018-08-25T21:24:44.156Z,4.90
2018-08-25T21:27:13.182Z,4.20
2018-08-25T21:29:42.313Z,4.53
2018-08-25T21:32:11.165Z,4.27
2018-08-25T21:34:40.018Z,5.33
2018-08-25T21:37:09.069Z,5.47
2018-08-25T21:39:38.017Z,5.23
2018-08-25T21:42:07.057Z,4.63
2018-08-25T21:44:35.928Z,4.10
2018-08-25T21:47:04.948Z,4.20
2018-08-25T21:49:33.963Z,3.93
2018-08-25T21:52:02.962Z,4.37
2018-08-25T21:54:31.992Z,4.33
2018-08-25T21:57:00.941Z,4.30
2018-08-25T21:59:29.913Z,4.30
2018-08-25T22:01:59.412Z,4.67
2018-08-25T22:04:29.288Z,4.30
2018-08-25T22:06:58.670Z,5.00
2018-08-25T22:09:27.539Z,4.63
2018-08-25T22:11:56.572Z,5.03
2018-08-25T22:14:25.493Z,5.23
2018-08-25T22:16:54.431Z,4.13
2018-08-25T22:19:23.290Z,4.30
2018-08-25T22:21:52.266Z,4.83
2018-08-25T22:24:21.289Z,4.53
2018-08-25T22:26:50.225Z,4.07
2018-08-25T22:29:19.152Z,4.40
2018-08-25T22:31:48.304Z,4.10
2018-08-25T22:34:17.280Z,4.20
2018-08-25T22:36:46.135Z,5.93
2018-08-25T22:39:14.987Z,4.60
2018-08-25T22:41:44.096Z,5.20
2018-08-25T22:44:13.294Z,4.47
2018-08-25T22:46:42.324Z,4.93
2018-08-25T22:49:11.164Z,4.87
2018-08-25T22:51:40.038Z,4.90
2018-08-25T22:54:09.063Z,4.97
2018-08-25T22:56:38.004Z,4.80
2018-08-25T22:59:06.832Z,4.50
2018-08-25T23:01:35.845Z,4.50
2018-08-25T23:04:04.903Z,4.90
2018-08-25T23:06:33.847Z,7.73
2018-08-25T23:09:02.751Z,5.97
2018-08-25T23:11:31.684Z,5.20
2018-08-25T23:14:00.637Z,4.97
2018-08-25T23:16:29.620Z,5.03
2018-08-25T23:18:58.657Z,6.70
2018-08-25T23:21:27.504Z,7.13
2018-08-25T23:23:56.525Z,6.90
2018-08-25T23:26:25.457Z,5.00
2018-08-25T23:28:54.499Z,5.10
2018-08-25T23:31:23.427Z,5.10
2018-08-25T23:33:52.338Z,5.27
2018-08-25T23:36:21.319Z,5.57
2018-08-25T23:38:50.421Z,5.87
2018-08-25T23:41:19.259Z,5.40
2018-08-25T23:43:48.208Z,4.93
2018-08-25T23:46:17.104Z,4.77
2018-08-25T23:48:46.020Z,4.80
2018-08-25T23:51:14.871Z,4.97
2018-08-25T23:53:43.783Z,5.40
2018-08-25T23:56:12.620Z,5.43
2018-08-25T23:58:41.517Z,5.40
